sensor_id;sensor_type;location;lat;lon;timestamp;P1;durP1;ratioP1;P2;durP2;ratioP2
41514;SDS011;27247;48.020;16.720;2022-12-11T00:02:43;56.40;;;22.42;;
41514;SDS011;27247;48.020;16.720;2022-12-11T00:06:54;60.43;;;24.53;;
41514;SDS011;27247;48.020;16.720;2022-12-11T00:11:06;60.72;;;23.48;;
41514;SDS011;27247;48.020;16.720;2022-12-11T00:15:17;54.22;;;24.05;;
41514;SDS011;27247;48.020;16.720;2022-12-11T00:19:28;63.77;;;24.50;;
41514;SDS011;27247;48.020;16.720;2022-12-11T00:23:38;56.70;;;23.58;;
41514;SDS011;27247;48.020;16.720;2022-12-11T00:27:49;61.38;;;24.50;;
41514;SDS011;27247;48.020;16.720;2022-12-11T00:31:59;59.55;;;24.95;;
41514;SDS011;27247;48.020;16.720;2022-12-11T00:36:28;64.63;;;26.00;;
41514;SDS011;27247;48.020;16.720;2022-12-11T00:40:38;68.78;;;24.98;;
41514;SDS011;27247;48.020;16.720;2022-12-11T00:44:49;68.53;;;24.07;;
41514;SDS011;27247;48.020;16.720;2022-12-11T00:48:59;63.10;;;24.23;;
41514;SDS011;27247;48.020;16.720;2022-12-11T00:53:10;58.72;;;25.52;;
41514;SDS011;27247;48.020;16.720;2022-12-11T00:57:20;60.53;;;23.30;;
41514;SDS011;27247;48.020;16.720;2022-12-11T01:01:30;60.33;;;22.48;;
41514;SDS011;27247;48.020;16.720;2022-12-11T01:05:49;63.67;;;22.95;;
41514;SDS011;27247;48.020;16.720;2022-12-11T01:10:00;60.50;;;22.02;;
41514;SDS011;27247;48.020;16.720;2022-12-11T01:14:29;56.72;;;23.60;;
41514;SDS011;27247;48.020;16.720;2022-12-11T01:18:40;54.70;;;22.58;;
41514;SDS011;27247;48.020;16.720;2022-12-11T01:22:51;54.65;;;21.05;;
41514;SDS011;27247;48.020;16.720;2022-12-11T01:27:02;45.30;;;20.23;;
41514;SDS011;27247;48.020;16.720;2022-12-11T01:31:14;51.97;;;20.27;;
41514;SDS011;27247;48.020;16.720;2022-12-11T01:35:26;46.15;;;20.08;;
41514;SDS011;27247;48.020;16.720;2022-12-11T01:39:37;53.35;;;22.08;;
41514;SDS011;27247;48.020;16.720;2022-12-11T01:48:20;47.05;;;21.02;;
41514;SDS011;27247;48.020;16.720;2022-12-11T01:52:34;46.42;;;19.70;;
41514;SDS011;27247;48.020;16.720;2022-12-11T01:56:45;55.03;;;22.05;;
41514;SDS011;27247;48.020;16.720;2022-12-11T02:00:59;49.25;;;21.40;;
41514;SDS011;27247;48.020;16.720;2022-12-11T02:05:11;48.35;;;19.88;;
41514;SDS011;27247;48.020;16.720;2022-12-11T02:09:23;46.50;;;19.35;;
41514;SDS011;27247;48.020;16.720;2022-12-11T02:18:19;50.00;;;20.35;;
41514;SDS011;27247;48.020;16.720;2022-12-11T02:23:12;45.80;;;20.02;;
41514;SDS011;27247;48.020;16.720;2022-12-11T02:27:37;48.22;;;21.40;;
41514;SDS011;27247;48.020;16.720;2022-12-11T02:31:59;49.17;;;21.02;;
41514;SDS011;27247;48.020;16.720;2022-12-11T02:36:15;50.42;;;20.30;;
41514;SDS011;27247;48.020;16.720;2022-12-11T02:40:29;51.97;;;21.63;;
41514;SDS011;27247;48.020;16.720;2022-12-11T02:44:41;51.42;;;20.17;;
41514;SDS011;27247;48.020;16.720;2022-12-11T02:48:53;50.35;;;20.20;;
41514;SDS011;27247;48.020;16.720;2022-12-11T02:53:05;51.88;;;21.67;;
41514;SDS011;27247;48.020;16.720;2022-12-11T03:02:12;48.88;;;19.48;;
41514;SDS011;27247;48.020;16.720;2022-12-11T03:06:27;44.42;;;18.55;;
41514;SDS011;27247;48.020;16.720;2022-12-11T03:14:55;45.63;;;19.33;;
41514;SDS011;27247;48.020;16.720;2022-12-11T03:23:56;51.03;;;19.42;;
41514;SDS011;27247;48.020;16.720;2022-12-11T03:28:22;47.85;;;20.17;;
41514;SDS011;27247;48.020;16.720;2022-12-11T03:32:40;46.22;;;17.55;;
41514;SDS011;27247;48.020;16.720;2022-12-11T03:36:58;46.97;;;19.27;;
41514;SDS011;27247;48.020;16.720;2022-12-11T03:41:10;42.95;;;17.42;;
41514;SDS011;27247;48.020;16.720;2022-12-11T03:45:23;41.13;;;17.00;;
41514;SDS011;27247;48.020;16.720;2022-12-11T03:49:38;38.15;;;17.52;;
41514;SDS011;27247;48.020;16.720;2022-12-11T03:53:51;41.80;;;17.55;;
41514;SDS011;27247;48.020;16.720;2022-12-11T03:58:02;48.95;;;18.17;;
41514;SDS011;27247;48.020;16.720;2022-12-11T04:02:12;41.75;;;18.48;;
41514;SDS011;27247;48.020;16.720;2022-12-11T04:06:23;38.87;;;16.90;;
41514;SDS011;27247;48.020;16.720;2022-12-11T04:10:33;41.63;;;15.75;;
41514;SDS011;27247;48.020;16.720;2022-12-11T04:14:43;35.00;;;15.23;;
41514;SDS011;27247;48.020;16.720;2022-12-11T04:19:12;35.05;;;15.00;;
41514;SDS011;27247;48.020;16.720;2022-12-11T04:23:41;31.27;;;13.77;;
41514;SDS011;27247;48.020;16.720;2022-12-11T04:28:10;34.72;;;15.13;;
41514;SDS011;27247;48.020;16.720;2022-12-11T04:32:20;37.42;;;15.55;;
41514;SDS011;27247;48.020;16.720;2022-12-11T04:36:31;33.53;;;14.82;;
41514;SDS011;27247;48.020;16.720;2022-12-11T04:40:41;34.50;;;14.35;;
41514;SDS011;27247;48.020;16.720;2022-12-11T04:44:51;34.17;;;14.63;;
41514;SDS011;27247;48.020;16.720;2022-12-11T04:49:02;36.85;;;16.40;;
41514;SDS011;27247;48.020;16.720;2022-12-11T04:53:12;35.47;;;16.27;;
41514;SDS011;27247;48.020;16.720;2022-12-11T04:57:22;33.10;;;15.43;;
41514;SDS011;27247;48.020;16.720;2022-12-11T05:01:33;36.72;;;15.55;;
41514;SDS011;27247;48.020;16.720;2022-12-11T05:05:49;35.25;;;15.80;;
41514;SDS011;27247;48.020;16.720;2022-12-11T05:10:00;35.60;;;17.05;;
41514;SDS011;27247;48.020;16.720;2022-12-11T05:14:11;38.72;;;16.83;;
41514;SDS011;27247;48.020;16.720;2022-12-11T05:18:21;36.97;;;16.23;;
41514;SDS011;27247;48.020;16.720;2022-12-11T05:22:32;36.72;;;16.23;;
41514;SDS011;27247;48.020;16.720;2022-12-11T05:26:43;38.63;;;16.92;;
41514;SDS011;27247;48.020;16.720;2022-12-11T05:30:56;49.92;;;19.05;;
41514;SDS011;27247;48.020;16.720;2022-12-11T05:35:08;43.35;;;19.80;;
41514;SDS011;27247;48.020;16.720;2022-12-11T05:39:18;36.60;;;17.35;;
41514;SDS011;27247;48.020;16.720;2022-12-11T05:43:30;37.25;;;16.73;;
41514;SDS011;27247;48.020;16.720;2022-12-11T05:47:42;36.92;;;16.83;;
41514;SDS011;27247;48.020;16.720;2022-12-11T05:51:52;34.28;;;15.70;;
41514;SDS011;27247;48.020;16.720;2022-12-11T05:56:04;40.40;;;17.27;;
41514;SDS011;27247;48.020;16.720;2022-12-11T06:00:16;37.08;;;15.95;;
41514;SDS011;27247;48.020;16.720;2022-12-11T06:04:26;32.35;;;14.95;;
41514;SDS011;27247;48.020;16.720;2022-12-11T06:08:37;33.07;;;15.40;;
41514;SDS011;27247;48.020;16.720;2022-12-11T06:12:47;30.77;;;15.60;;
41514;SDS011;27247;48.020;16.720;2022-12-11T06:16:57;31.13;;;14.90;;
41514;SDS011;27247;48.020;16.720;2022-12-11T06:21:11;34.23;;;15.40;;
41514;SDS011;27247;48.020;16.720;2022-12-11T06:25:25;33.63;;;14.70;;
41514;SDS011;27247;48.020;16.720;2022-12-11T06:29:35;34.38;;;17.23;;
41514;SDS011;27247;48.020;16.720;2022-12-11T06:33:46;35.50;;;16.55;;
41514;SDS011;27247;48.020;16.720;2022-12-11T06:37:57;31.40;;;14.93;;
41514;SDS011;27247;48.020;16.720;2022-12-11T06:42:07;37.13;;;16.02;;
41514;SDS011;27247;48.020;16.720;2022-12-11T06:46:18;32.95;;;16.88;;
41514;SDS011;27247;48.020;16.720;2022-12-11T06:50:29;33.35;;;15.18;;
41514;SDS011;27247;48.020;16.720;2022-12-11T06:54:40;27.42;;;14.70;;
41514;SDS011;27247;48.020;16.720;2022-12-11T06:58:50;31.00;;;15.32;;
41514;SDS011;27247;48.020;16.720;2022-12-11T07:03:01;28.00;;;14.73;;
41514;SDS011;27247;48.020;16.720;2022-12-11T07:07:11;36.10;;;16.40;;
41514;SDS011;27247;48.020;16.720;2022-12-11T07:11:22;31.33;;;15.20;;
41514;SDS011;27247;48.020;16.720;2022-12-11T07:15:33;32.97;;;15.57;;
41514;SDS011;27247;48.020;16.720;2022-12-11T07:19:43;28.02;;;14.00;;
41514;SDS011;27247;48.020;16.720;2022-12-11T07:23:53;30.77;;;13.07;;
41514;SDS011;27247;48.020;16.720;2022-12-11T07:28:04;32.40;;;14.20;;
41514;SDS011;27247;48.020;16.720;2022-12-11T07:32:14;26.43;;;13.30;;
41514;SDS011;27247;48.020;16.720;2022-12-11T07:36:24;29.57;;;14.97;;
41514;SDS011;27247;48.020;16.720;2022-12-11T07:40:35;29.38;;;14.65;;
41514;SDS011;27247;48.020;16.720;2022-12-11T07:44:46;25.58;;;13.88;;
41514;SDS011;27247;48.020;16.720;2022-12-11T07:48:56;25.33;;;12.70;;
41514;SDS011;27247;48.020;16.720;2022-12-11T07:53:12;21.98;;;11.57;;
41514;SDS011;27247;48.020;16.720;2022-12-11T07:57:22;22.88;;;11.40;;
41514;SDS011;27247;48.020;16.720;2022-12-11T08:01:33;23.35;;;11.82;;
41514;SDS011;27247;48.020;16.720;2022-12-11T08:05:46;21.88;;;11.75;;
41514;SDS011;27247;48.020;16.720;2022-12-11T08:09:58;22.42;;;12.00;;
41514;SDS011;27247;48.020;16.720;2022-12-11T08:14:09;25.73;;;12.55;;
41514;SDS011;27247;48.020;16.720;2022-12-11T08:18:19;22.13;;;11.60;;
41514;SDS011;27247;48.020;16.720;2022-12-11T08:22:29;23.52;;;11.40;;
41514;SDS011;27247;48.020;16.720;2022-12-11T08:26:40;23.00;;;10.53;;
41514;SDS011;27247;48.020;16.720;2022-12-11T08:30:50;21.00;;;11.63;;
41514;SDS011;27247;48.020;16.720;2022-12-11T08:35:01;18.58;;;10.25;;
41514;SDS011;27247;48.020;16.720;2022-12-11T08:39:11;24.98;;;10.30;;
41514;SDS011;27247;48.020;16.720;2022-12-11T08:43:22;20.95;;;10.88;;
41514;SDS011;27247;48.020;16.720;2022-12-11T08:47:32;21.48;;;10.60;;
41514;SDS011;27247;48.020;16.720;2022-12-11T08:51:46;19.48;;;9.75;;
41514;SDS011;27247;48.020;16.720;2022-12-11T08:56:00;20.58;;;9.93;;
41514;SDS011;27247;48.020;16.720;2022-12-11T09:00:15;19.23;;;9.32;;
41514;SDS011;27247;48.020;16.720;2022-12-11T09:04:26;20.10;;;10.55;;
41514;SDS011;27247;48.020;16.720;2022-12-11T09:08:36;19.48;;;9.10;;
41514;SDS011;27247;48.020;16.720;2022-12-11T09:12:47;21.55;;;9.68;;
41514;SDS011;27247;48.020;16.720;2022-12-11T09:16:57;26.55;;;12.77;;
41514;SDS011;27247;48.020;16.720;2022-12-11T09:21:09;16.83;;;9.57;;
41514;SDS011;27247;48.020;16.720;2022-12-11T09:25:22;17.05;;;9.13;;
41514;SDS011;27247;48.020;16.720;2022-12-11T09:29:33;16.93;;;9.13;;
41514;SDS011;27247;48.020;16.720;2022-12-11T09:33:44;19.50;;;9.30;;
41514;SDS011;27247;48.020;16.720;2022-12-11T09:37:55;20.77;;;10.30;;
41514;SDS011;27247;48.020;16.720;2022-12-11T09:42:12;20.35;;;9.32;;
41514;SDS011;27247;48.020;16.720;2022-12-11T09:46:28;17.67;;;9.60;;
41514;SDS011;27247;48.020;16.720;2022-12-11T09:50:41;17.27;;;10.00;;
41514;SDS011;27247;48.020;16.720;2022-12-11T09:54:53;20.08;;;10.35;;
41514;SDS011;27247;48.020;16.720;2022-12-11T09:59:10;22.73;;;12.27;;
41514;SDS011;27247;48.020;16.720;2022-12-11T10:08:08;18.42;;;9.30;;
41514;SDS011;27247;48.020;16.720;2022-12-11T10:16:53;20.42;;;9.27;;
41514;SDS011;27247;48.020;16.720;2022-12-11T10:21:11;17.70;;;8.90;;
41514;SDS011;27247;48.020;16.720;2022-12-11T10:25:33;15.40;;;9.23;;
41514;SDS011;27247;48.020;16.720;2022-12-11T10:34:26;32.72;;;17.65;;
41514;SDS011;27247;48.020;16.720;2022-12-11T10:38:43;22.02;;;13.60;;
41514;SDS011;27247;48.020;16.720;2022-12-11T10:42:54;16.60;;;9.45;;
41514;SDS011;27247;48.020;16.720;2022-12-11T10:47:12;25.48;;;11.40;;
41514;SDS011;27247;48.020;16.720;2022-12-11T10:51:28;16.83;;;9.85;;
41514;SDS011;27247;48.020;16.720;2022-12-11T10:55:44;15.45;;;8.73;;
41514;SDS011;27247;48.020;16.720;2022-12-11T10:59:56;11.93;;;7.32;;
41514;SDS011;27247;48.020;16.720;2022-12-11T11:04:18;13.15;;;7.57;;
41514;SDS011;27247;48.020;16.720;2022-12-11T11:08:49;15.38;;;7.78;;
41514;SDS011;27247;48.020;16.720;2022-12-11T11:13:01;16.27;;;7.95;;
41514;SDS011;27247;48.020;16.720;2022-12-11T11:17:15;12.75;;;6.85;;
41514;SDS011;27247;48.020;16.720;2022-12-11T11:21:26;17.45;;;9.35;;
41514;SDS011;27247;48.020;16.720;2022-12-11T11:25:39;12.70;;;7.97;;
41514;SDS011;27247;48.020;16.720;2022-12-11T11:30:19;11.27;;;7.00;;
41514;SDS011;27247;48.020;16.720;2022-12-11T11:35:12;14.75;;;7.65;;
41514;SDS011;27247;48.020;16.720;2022-12-11T11:39:36;13.00;;;6.85;;
41514;SDS011;27247;48.020;16.720;2022-12-11T11:43:55;11.63;;;7.00;;
41514;SDS011;27247;48.020;16.720;2022-12-11T11:48:28;12.50;;;7.60;;
41514;SDS011;27247;48.020;16.720;2022-12-11T11:52:50;11.73;;;7.03;;
41514;SDS011;27247;48.020;16.720;2022-12-11T11:57:12;12.15;;;7.10;;
41514;SDS011;27247;48.020;16.720;2022-12-11T12:01:28;16.33;;;8.65;;
41514;SDS011;27247;48.020;16.720;2022-12-11T12:05:52;13.93;;;7.43;;
41514;SDS011;27247;48.020;16.720;2022-12-11T12:10:28;18.73;;;9.35;;
41514;SDS011;27247;48.020;16.720;2022-12-11T12:19:20;19.85;;;10.20;;
41514;SDS011;27247;48.020;16.720;2022-12-11T12:24:00;18.33;;;9.70;;
41514;SDS011;27247;48.020;16.720;2022-12-11T12:50:12;13.93;;;7.60;;
41514;SDS011;27247;48.020;16.720;2022-12-11T12:54:29;11.70;;;6.68;;
41514;SDS011;27247;48.020;16.720;2022-12-11T12:58:43;14.05;;;7.07;;
41514;SDS011;27247;48.020;16.720;2022-12-11T13:02:54;12.80;;;6.85;;
41514;SDS011;27247;48.020;16.720;2022-12-11T13:07:12;14.00;;;6.65;;
41514;SDS011;27247;48.020;16.720;2022-12-11T13:11:30;10.20;;;5.90;;
41514;SDS011;27247;48.020;16.720;2022-12-11T13:15:43;11.15;;;6.57;;
41514;SDS011;27247;48.020;16.720;2022-12-11T13:20:10;12.60;;;7.25;;
41514;SDS011;27247;48.020;16.720;2022-12-11T13:24:25;12.82;;;6.50;;
41514;SDS011;27247;48.020;16.720;2022-12-11T13:37:00;12.80;;;7.20;;
41514;SDS011;27247;48.020;16.720;2022-12-11T13:41:13;13.02;;;7.45;;
41514;SDS011;27247;48.020;16.720;2022-12-11T13:45:43;12.10;;;6.78;;
41514;SDS011;27247;48.020;16.720;2022-12-11T13:50:10;17.23;;;7.38;;
41514;SDS011;27247;48.020;16.720;2022-12-11T13:54:34;12.13;;;6.60;;
41514;SDS011;27247;48.020;16.720;2022-12-11T13:58:45;15.20;;;7.93;;
41514;SDS011;27247;48.020;16.720;2022-12-11T14:02:56;9.85;;;6.28;;
41514;SDS011;27247;48.020;16.720;2022-12-11T14:07:09;13.32;;;7.53;;
41514;SDS011;27247;48.020;16.720;2022-12-11T14:11:21;12.15;;;7.07;;
41514;SDS011;27247;48.020;16.720;2022-12-11T14:15:36;13.00;;;6.40;;
41514;SDS011;27247;48.020;16.720;2022-12-11T14:19:53;14.90;;;7.70;;
41514;SDS011;27247;48.020;16.720;2022-12-11T14:24:10;14.50;;;6.63;;
41514;SDS011;27247;48.020;16.720;2022-12-11T14:28:22;31.52;;;15.50;;
41514;SDS011;27247;48.020;16.720;2022-12-11T14:32:38;14.70;;;7.18;;
41514;SDS011;27247;48.020;16.720;2022-12-11T14:36:53;19.25;;;9.27;;
41514;SDS011;27247;48.020;16.720;2022-12-11T14:41:12;18.30;;;9.85;;
41514;SDS011;27247;48.020;16.720;2022-12-11T14:45:38;17.48;;;8.82;;
41514;SDS011;27247;48.020;16.720;2022-12-11T14:54:25;17.60;;;8.85;;
41514;SDS011;27247;48.020;16.720;2022-12-11T14:59:06;15.82;;;8.65;;
41514;SDS011;27247;48.020;16.720;2022-12-11T15:03:20;18.00;;;8.57;;
41514;SDS011;27247;48.020;16.720;2022-12-11T15:07:32;12.50;;;7.25;;
41514;SDS011;27247;48.020;16.720;2022-12-11T15:11:43;12.38;;;7.20;;
41514;SDS011;27247;48.020;16.720;2022-12-11T15:15:55;14.38;;;7.45;;
41514;SDS011;27247;48.020;16.720;2022-12-11T15:20:09;18.08;;;8.93;;
41514;SDS011;27247;48.020;16.720;2022-12-11T15:24:41;17.98;;;9.30;;
41514;SDS011;27247;48.020;16.720;2022-12-11T15:28:58;16.75;;;8.10;;
41514;SDS011;27247;48.020;16.720;2022-12-11T15:37:27;15.73;;;9.45;;
41514;SDS011;27247;48.020;16.720;2022-12-11T15:41:40;21.48;;;11.48;;
41514;SDS011;27247;48.020;16.720;2022-12-11T15:45:51;20.75;;;11.50;;
41514;SDS011;27247;48.020;16.720;2022-12-11T15:50:07;18.80;;;8.63;;
41514;SDS011;27247;48.020;16.720;2022-12-11T15:54:25;30.75;;;14.63;;
41514;SDS011;27247;48.020;16.720;2022-12-11T15:58:36;18.67;;;10.02;;
41514;SDS011;27247;48.020;16.720;2022-12-11T16:02:47;13.88;;;6.78;;
41514;SDS011;27247;48.020;16.720;2022-12-11T16:06:57;13.90;;;7.43;;
41514;SDS011;27247;48.020;16.720;2022-12-11T16:11:08;12.73;;;6.47;;
41514;SDS011;27247;48.020;16.720;2022-12-11T16:15:22;14.10;;;7.57;;
41514;SDS011;27247;48.020;16.720;2022-12-11T16:19:32;12.85;;;6.18;;
41514;SDS011;27247;48.020;16.720;2022-12-11T16:23:43;11.95;;;6.32;;
41514;SDS011;27247;48.020;16.720;2022-12-11T16:27:54;13.57;;;6.53;;
41514;SDS011;27247;48.020;16.720;2022-12-11T16:32:08;11.95;;;6.40;;
41514;SDS011;27247;48.020;16.720;2022-12-11T16:36:19;11.88;;;6.25;;
41514;SDS011;27247;48.020;16.720;2022-12-11T16:40:30;15.07;;;6.70;;
41514;SDS011;27247;48.020;16.720;2022-12-11T16:44:40;12.25;;;6.82;;
41514;SDS011;27247;48.020;16.720;2022-12-11T16:48:52;11.02;;;6.00;;
41514;SDS011;27247;48.020;16.720;2022-12-11T16:53:03;11.20;;;6.22;;
41514;SDS011;27247;48.020;16.720;2022-12-11T16:57:13;12.57;;;7.45;;
41514;SDS011;27247;48.020;16.720;2022-12-11T17:01:24;21.02;;;9.25;;
41514;SDS011;27247;48.020;16.720;2022-12-11T17:05:35;23.13;;;10.50;;
41514;SDS011;27247;48.020;16.720;2022-12-11T17:09:48;11.80;;;6.82;;
41514;SDS011;27247;48.020;16.720;2022-12-11T17:13:58;13.50;;;6.97;;
41514;SDS011;27247;48.020;16.720;2022-12-11T17:18:15;14.45;;;7.95;;
41514;SDS011;27247;48.020;16.720;2022-12-11T17:22:26;14.25;;;7.28;;
41514;SDS011;27247;48.020;16.720;2022-12-11T17:26:37;19.10;;;8.30;;
41514;SDS011;27247;48.020;16.720;2022-12-11T17:30:47;18.30;;;9.18;;
41514;SDS011;27247;48.020;16.720;2022-12-11T17:35:00;21.35;;;11.55;;
41514;SDS011;27247;48.020;16.720;2022-12-11T17:39:10;18.30;;;10.13;;
41514;SDS011;27247;48.020;16.720;2022-12-11T17:43:21;17.90;;;9.38;;
41514;SDS011;27247;48.020;16.720;2022-12-11T17:47:32;26.40;;;13.13;;
41514;SDS011;27247;48.020;16.720;2022-12-11T17:51:42;26.15;;;11.40;;
41514;SDS011;27247;48.020;16.720;2022-12-11T17:55:53;23.25;;;12.02;;
41514;SDS011;27247;48.020;16.720;2022-12-11T18:00:04;24.30;;;10.43;;
41514;SDS011;27247;48.020;16.720;2022-12-11T18:04:15;18.02;;;9.20;;
41514;SDS011;27247;48.020;16.720;2022-12-11T18:08:26;22.20;;;12.45;;
41514;SDS011;27247;48.020;16.720;2022-12-11T18:12:39;21.42;;;11.52;;
41514;SDS011;27247;48.020;16.720;2022-12-11T18:16:50;25.30;;;13.38;;
41514;SDS011;27247;48.020;16.720;2022-12-11T18:21:01;26.45;;;14.23;;
41514;SDS011;27247;48.020;16.720;2022-12-11T18:25:12;34.50;;;14.60;;
41514;SDS011;27247;48.020;16.720;2022-12-11T18:29:24;27.77;;;13.45;;
41514;SDS011;27247;48.020;16.720;2022-12-11T18:33:37;30.52;;;15.32;;
41514;SDS011;27247;48.020;16.720;2022-12-11T18:37:48;32.83;;;15.70;;
41514;SDS011;27247;48.020;16.720;2022-12-11T18:42:00;32.88;;;16.10;;
41514;SDS011;27247;48.020;16.720;2022-12-11T18:46:12;36.70;;;16.20;;
41514;SDS011;27247;48.020;16.720;2022-12-11T18:50:28;35.63;;;17.60;;
41514;SDS011;27247;48.020;16.720;2022-12-11T18:54:39;43.03;;;19.35;;
41514;SDS011;27247;48.020;16.720;2022-12-11T18:58:54;34.58;;;16.30;;
41514;SDS011;27247;48.020;16.720;2022-12-11T19:03:05;34.55;;;16.67;;
41514;SDS011;27247;48.020;16.720;2022-12-11T19:07:17;29.50;;;15.10;;
41514;SDS011;27247;48.020;16.720;2022-12-11T19:11:28;33.30;;;16.70;;
41514;SDS011;27247;48.020;16.720;2022-12-11T19:15:41;33.25;;;15.55;;
41514;SDS011;27247;48.020;16.720;2022-12-11T19:19:53;29.15;;;14.45;;
41514;SDS011;27247;48.020;16.720;2022-12-11T19:24:04;31.15;;;14.57;;
41514;SDS011;27247;48.020;16.720;2022-12-11T19:28:16;31.95;;;14.55;;
41514;SDS011;27247;48.020;16.720;2022-12-11T19:32:28;34.70;;;16.85;;
41514;SDS011;27247;48.020;16.720;2022-12-11T19:36:41;59.42;;;21.98;;
41514;SDS011;27247;48.020;16.720;2022-12-11T19:40:53;34.00;;;17.52;;
41514;SDS011;27247;48.020;16.720;2022-12-11T19:45:04;36.67;;;18.00;;
41514;SDS011;27247;48.020;16.720;2022-12-11T19:49:15;84.70;;;31.73;;
41514;SDS011;27247;48.020;16.720;2022-12-11T19:53:26;52.80;;;23.92;;
41514;SDS011;27247;48.020;16.720;2022-12-11T19:57:36;45.15;;;21.50;;
41514;SDS011;27247;48.020;16.720;2022-12-11T20:01:47;51.45;;;25.48;;
41514;SDS011;27247;48.020;16.720;2022-12-11T20:05:59;48.53;;;24.60;;
41514;SDS011;27247;48.020;16.720;2022-12-11T20:10:11;46.88;;;22.75;;
41514;SDS011;27247;48.020;16.720;2022-12-11T20:14:23;47.90;;;23.00;;
41514;SDS011;27247;48.020;16.720;2022-12-11T20:18:35;44.13;;;20.75;;
41514;SDS011;27247;48.020;16.720;2022-12-11T20:22:47;45.88;;;21.50;;
41514;SDS011;27247;48.020;16.720;2022-12-11T20:27:01;45.60;;;21.23;;
41514;SDS011;27247;48.020;16.720;2022-12-11T20:31:13;42.85;;;20.80;;
41514;SDS011;27247;48.020;16.720;2022-12-11T20:35:25;45.92;;;21.48;;
41514;SDS011;27247;48.020;16.720;2022-12-11T20:39:36;51.72;;;21.75;;
41514;SDS011;27247;48.020;16.720;2022-12-11T20:43:47;53.22;;;22.98;;
41514;SDS011;27247;48.020;16.720;2022-12-11T20:47:58;42.75;;;21.15;;
41514;SDS011;27247;48.020;16.720;2022-12-11T20:52:09;48.78;;;21.90;;
41514;SDS011;27247;48.020;16.720;2022-12-11T20:56:19;51.03;;;23.63;;
41514;SDS011;27247;48.020;16.720;2022-12-11T21:00:31;56.45;;;25.48;;
41514;SDS011;27247;48.020;16.720;2022-12-11T21:04:42;47.50;;;21.13;;
41514;SDS011;27247;48.020;16.720;2022-12-11T21:08:53;53.28;;;21.75;;
41514;SDS011;27247;48.020;16.720;2022-12-11T21:13:04;47.78;;;21.35;;
41514;SDS011;27247;48.020;16.720;2022-12-11T21:17:14;46.30;;;20.40;;
41514;SDS011;27247;48.020;16.720;2022-12-11T21:21:25;44.30;;;20.52;;
41514;SDS011;27247;48.020;16.720;2022-12-11T21:25:38;40.97;;;20.02;;
41514;SDS011;27247;48.020;16.720;2022-12-11T21:29:49;45.40;;;20.55;;
41514;SDS011;27247;48.020;16.720;2022-12-11T21:34:00;48.40;;;21.90;;
41514;SDS011;27247;48.020;16.720;2022-12-11T21:38:10;41.40;;;20.13;;
41514;SDS011;27247;48.020;16.720;2022-12-11T21:42:22;62.08;;;26.33;;
41514;SDS011;27247;48.020;16.720;2022-12-11T21:46:33;57.78;;;24.02;;
41514;SDS011;27247;48.020;16.720;2022-12-11T21:50:43;64.85;;;25.52;;
41514;SDS011;27247;48.020;16.720;2022-12-11T21:54:54;58.33;;;24.30;;
41514;SDS011;27247;48.020;16.720;2022-12-11T21:59:05;38.63;;;19.13;;
41514;SDS011;27247;48.020;16.720;2022-12-11T22:03:15;39.45;;;18.02;;
41514;SDS011;27247;48.020;16.720;2022-12-11T22:07:26;42.55;;;18.92;;
41514;SDS011;27247;48.020;16.720;2022-12-11T22:11:36;40.07;;;18.53;;
41514;SDS011;27247;48.020;16.720;2022-12-11T22:15:46;34.53;;;17.98;;
41514;SDS011;27247;48.020;16.720;2022-12-11T22:19:57;40.25;;;19.25;;
41514;SDS011;27247;48.020;16.720;2022-12-11T22:24:07;47.20;;;20.67;;
41514;SDS011;27247;48.020;16.720;2022-12-11T22:28:18;43.05;;;19.90;;
41514;SDS011;27247;48.020;16.720;2022-12-11T22:32:29;49.38;;;22.38;;
41514;SDS011;27247;48.020;16.720;2022-12-11T22:36:39;44.97;;;21.00;;
41514;SDS011;27247;48.020;16.720;2022-12-11T22:40:50;58.00;;;24.40;;
41514;SDS011;27247;48.020;16.720;2022-12-11T22:45:01;75.95;;;31.35;;
41514;SDS011;27247;48.020;16.720;2022-12-11T22:49:12;54.90;;;23.70;;
41514;SDS011;27247;48.020;16.720;2022-12-11T22:53:23;51.25;;;22.08;;
41514;SDS011;27247;48.020;16.720;2022-12-11T22:57:37;57.60;;;25.92;;
41514;SDS011;27247;48.020;16.720;2022-12-11T23:01:47;39.13;;;18.95;;
41514;SDS011;27247;48.020;16.720;2022-12-11T23:05:58;43.00;;;20.35;;
41514;SDS011;27247;48.020;16.720;2022-12-11T23:10:08;40.90;;;19.40;;
41514;SDS011;27247;48.020;16.720;2022-12-11T23:14:20;40.17;;;18.38;;
41514;SDS011;27247;48.020;16.720;2022-12-11T23:18:30;43.33;;;19.40;;
41514;SDS011;27247;48.020;16.720;2022-12-11T23:22:40;43.83;;;18.98;;
41514;SDS011;27247;48.020;16.720;2022-12-11T23:26:51;39.77;;;18.37;;
41514;SDS011;27247;48.020;16.720;2022-12-11T23:31:01;39.63;;;18.23;;
41514;SDS011;27247;48.020;16.720;2022-12-11T23:35:11;41.33;;;19.92;;
41514;SDS011;27247;48.020;16.720;2022-12-11T23:39:22;37.22;;;18.13;;
41514;SDS011;27247;48.020;16.720;2022-12-11T23:43:32;39.43;;;17.30;;
41514;SDS011;27247;48.020;16.720;2022-12-11T23:47:43;34.97;;;16.90;;
41514;SDS011;27247;48.020;16.720;2022-12-11T23:51:53;39.08;;;17.33;;
41514;SDS011;27247;48.020;16.720;2022-12-11T23:56:07;29.83;;;15.07;;
